sensor_id;sensor_type;location;lat;lon;timestamp;temperature;humidity
31967;DHT22;18496;52.042;6.812;2023-03-30T00:00:08;14.20;99.90
31967;DHT22;18496;52.042;6.812;2023-03-30T00:02:30;14.20;99.90
31967;DHT22;18496;52.042;6.812;2023-03-30T00:04:40;14.20;99.90
31967;DHT22;18496;52.042;6.812;2023-03-30T00:06:45;14.20;99.90
31967;DHT22;18496;52.042;6.812;2023-03-30T00:08:53;14.20;99.90
31967;DHT22;18496;52.042;6.812;2023-03-30T00:13:03;14.20;99.90
31967;DHT22;18496;52.042;6.812;2023-03-30T00:15:07;14.20;99.90
31967;DHT22;18496;52.042;6.812;2023-03-30T00:17:11;14.20;99.90
31967;DHT22;18496;52.042;6.812;2023-03-30T00:19:15;14.20;99.90
31967;DHT22;18496;52.042;6.812;2023-03-30T00:21:19;14.20;99.90
31967;DHT22;18496;52.042;6.812;2023-03-30T00:23:22;14.20;99.90
31967;DHT22;18496;52.042;6.812;2023-03-30T00:25:46;14.20;99.90
31967;DHT22;18496;52.042;6.812;2023-03-30T00:27:52;14.20;99.90
31967;DHT22;18496;52.042;6.812;2023-03-30T00:29:56;14.20;99.90
31967;DHT22;18496;52.042;6.812;2023-03-30T00:31:59;14.20;99.90
31967;DHT22;18496;52.042;6.812;2023-03-30T00:34:03;14.20;99.90
31967;DHT22;18496;52.042;6.812;2023-03-30T00:36:07;14.20;99.90
31967;DHT22;18496;52.042;6.812;2023-03-30T00:38:11;14.20;99.90
31967;DHT22;18496;52.042;6.812;2023-03-30T00:40:23;14.20;99.90
31967;DHT22;18496;52.042;6.812;2023-03-30T00:42:27;14.20;99.90
31967;DHT22;18496;52.042;6.812;2023-03-30T00:46:54;14.20;99.90
31967;DHT22;18496;52.042;6.812;2023-03-30T00:49:02;14.20;99.90
31967;DHT22;18496;52.042;6.812;2023-03-30T00:51:08;14.20;99.90
31967;DHT22;18496;52.042;6.812;2023-03-30T00:53:13;14.20;99.90
31967;DHT22;18496;52.042;6.812;2023-03-30T00:55:20;14.20;99.90
31967;DHT22;18496;52.042;6.812;2023-03-30T00:57:24;14.20;99.90
31967;DHT22;18496;52.042;6.812;2023-03-30T00:59:29;14.20;99.90
31967;DHT22;18496;52.042;6.812;2023-03-30T01:01:33;14.20;99.90
31967;DHT22;18496;52.042;6.812;2023-03-30T01:03:44;14.20;99.90
31967;DHT22;18496;52.042;6.812;2023-03-30T01:05:50;14.20;99.90
31967;DHT22;18496;52.042;6.812;2023-03-30T01:07:54;14.20;99.90
31967;DHT22;18496;52.042;6.812;2023-03-30T01:10:00;14.20;99.90
31967;DHT22;18496;52.042;6.812;2023-03-30T01:12:06;14.20;99.90
31967;DHT22;18496;52.042;6.812;2023-03-30T01:14:10;14.20;99.90
31967;DHT22;18496;52.042;6.812;2023-03-30T01:16:19;14.20;99.90
31967;DHT22;18496;52.042;6.812;2023-03-30T01:18:28;14.20;99.90
31967;DHT22;18496;52.042;6.812;2023-03-30T01:20:36;14.30;99.90
31967;DHT22;18496;52.042;6.812;2023-03-30T01:22:58;14.30;99.90
31967;DHT22;18496;52.042;6.812;2023-03-30T01:29:43;14.30;99.90
31967;DHT22;18496;52.042;6.812;2023-03-30T01:40:48;14.40;99.90
31967;DHT22;18496;52.042;6.812;2023-03-30T01:45:08;14.40;99.90
31967;DHT22;18496;52.042;6.812;2023-03-30T01:47:16;14.40;99.90
31967;DHT22;18496;52.042;6.812;2023-03-30T01:49:23;14.40;99.90
31967;DHT22;18496;52.042;6.812;2023-03-30T01:51:30;14.40;99.90
31967;DHT22;18496;52.042;6.812;2023-03-30T01:55:45;14.50;99.90
31967;DHT22;18496;52.042;6.812;2023-03-30T02:00:04;14.50;99.90
31967;DHT22;18496;52.042;6.812;2023-03-30T02:02:20;14.40;99.90
31967;DHT22;18496;52.042;6.812;2023-03-30T02:04:24;14.50;99.90
31967;DHT22;18496;52.042;6.812;2023-03-30T02:06:32;14.50;99.90
31967;DHT22;18496;52.042;6.812;2023-03-30T02:08:41;14.50;99.90
31967;DHT22;18496;52.042;6.812;2023-03-30T02:10:45;14.40;99.90
31967;DHT22;18496;52.042;6.812;2023-03-30T02:12:50;14.40;99.90
31967;DHT22;18496;52.042;6.812;2023-03-30T02:14:56;14.40;99.90
31967;DHT22;18496;52.042;6.812;2023-03-30T02:17:09;14.40;99.90
31967;DHT22;18496;52.042;6.812;2023-03-30T02:19:27;14.40;99.90
31967;DHT22;18496;52.042;6.812;2023-03-30T02:21:32;14.40;99.90
31967;DHT22;18496;52.042;6.812;2023-03-30T02:23:40;14.40;99.90
31967;DHT22;18496;52.042;6.812;2023-03-30T02:25:45;14.40;99.90
31967;DHT22;18496;52.042;6.812;2023-03-30T02:27:49;14.40;99.90
31967;DHT22;18496;52.042;6.812;2023-03-30T02:29:53;14.40;99.90
31967;DHT22;18496;52.042;6.812;2023-03-30T02:31:58;14.40;99.90
31967;DHT22;18496;52.042;6.812;2023-03-30T02:38:45;14.40;99.90
31967;DHT22;18496;52.042;6.812;2023-03-30T02:49:54;14.30;99.90
31967;DHT22;18496;52.042;6.812;2023-03-30T02:59:17;14.30;99.90
31967;DHT22;18496;52.042;6.812;2023-03-30T03:01:27;14.30;99.90
31967;DHT22;18496;52.042;6.812;2023-03-30T03:03:48;14.30;99.90
31967;DHT22;18496;52.042;6.812;2023-03-30T03:05:54;14.30;99.90
31967;DHT22;18496;52.042;6.812;2023-03-30T03:08:05;14.30;99.90
31967;DHT22;18496;52.042;6.812;2023-03-30T03:10:09;14.30;99.90
31967;DHT22;18496;52.042;6.812;2023-03-30T03:12:13;14.30;99.90
31967;DHT22;18496;52.042;6.812;2023-03-30T03:14:17;14.40;99.90
31967;DHT22;18496;52.042;6.812;2023-03-30T03:16:23;14.40;99.90
31967;DHT22;18496;52.042;6.812;2023-03-30T03:18:42;14.40;99.90
31967;DHT22;18496;52.042;6.812;2023-03-30T03:20:47;14.40;99.90
31967;DHT22;18496;52.042;6.812;2023-03-30T03:22:51;14.40;99.90
31967;DHT22;18496;52.042;6.812;2023-03-30T03:24:55;14.50;99.90
31967;DHT22;18496;52.042;6.812;2023-03-30T03:27:34;14.50;99.90
31967;DHT22;18496;52.042;6.812;2023-03-30T03:30:04;14.50;99.90
31967;DHT22;18496;52.042;6.812;2023-03-30T03:32:14;14.50;99.90
31967;DHT22;18496;52.042;6.812;2023-03-30T03:34:22;14.50;99.90
31967;DHT22;18496;52.042;6.812;2023-03-30T03:36:35;14.60;99.90
31967;DHT22;18496;52.042;6.812;2023-03-30T03:38:39;14.60;99.90
31967;DHT22;18496;52.042;6.812;2023-03-30T03:40:42;14.60;99.90
31967;DHT22;18496;52.042;6.812;2023-03-30T03:42:46;14.60;99.90
31967;DHT22;18496;52.042;6.812;2023-03-30T03:44:51;14.60;99.90
31967;DHT22;18496;52.042;6.812;2023-03-30T03:46:55;14.60;99.90
31967;DHT22;18496;52.042;6.812;2023-03-30T03:48:59;14.60;99.90
31967;DHT22;18496;52.042;6.812;2023-03-30T03:51:02;14.60;99.90
31967;DHT22;18496;52.042;6.812;2023-03-30T03:53:10;14.60;99.90
31967;DHT22;18496;52.042;6.812;2023-03-30T03:55:13;14.60;99.90
31967;DHT22;18496;52.042;6.812;2023-03-30T03:57:19;14.60;99.90
31967;DHT22;18496;52.042;6.812;2023-03-30T03:59:25;14.60;99.90
31967;DHT22;18496;52.042;6.812;2023-03-30T04:01:29;14.60;99.90
31967;DHT22;18496;52.042;6.812;2023-03-30T04:03:33;14.60;99.90
31967;DHT22;18496;52.042;6.812;2023-03-30T04:05:37;14.60;99.90
31967;DHT22;18496;52.042;6.812;2023-03-30T04:07:41;14.60;99.90
31967;DHT22;18496;52.042;6.812;2023-03-30T04:09:49;14.60;99.90
31967;DHT22;18496;52.042;6.812;2023-03-30T04:12:13;14.60;99.90
31967;DHT22;18496;52.042;6.812;2023-03-30T04:14:36;14.60;99.90
31967;DHT22;18496;52.042;6.812;2023-03-30T04:16:58;14.60;99.90
31967;DHT22;18496;52.042;6.812;2023-03-30T04:19:16;14.60;99.90
31967;DHT22;18496;52.042;6.812;2023-03-30T04:21:30;14.60;99.90
31967;DHT22;18496;52.042;6.812;2023-03-30T04:23:53;14.60;99.90
31967;DHT22;18496;52.042;6.812;2023-03-30T04:26:16;14.60;99.90
31967;DHT22;18496;52.042;6.812;2023-03-30T04:28:40;14.60;99.90
31967;DHT22;18496;52.042;6.812;2023-03-30T04:31:03;14.60;99.90
31967;DHT22;18496;52.042;6.812;2023-03-30T04:33:25;14.60;99.90
31967;DHT22;18496;52.042;6.812;2023-03-30T04:35:46;14.60;99.90
31967;DHT22;18496;52.042;6.812;2023-03-30T04:38:04;14.60;99.90
31967;DHT22;18496;52.042;6.812;2023-03-30T04:40:08;14.60;99.90
31967;DHT22;18496;52.042;6.812;2023-03-30T04:42:30;14.60;99.90
31967;DHT22;18496;52.042;6.812;2023-03-30T04:45:00;14.60;99.90
31967;DHT22;18496;52.042;6.812;2023-03-30T04:47:28;14.60;99.90
31967;DHT22;18496;52.042;6.812;2023-03-30T04:49:51;14.50;99.90
31967;DHT22;18496;52.042;6.812;2023-03-30T04:52:13;14.60;99.90
31967;DHT22;18496;52.042;6.812;2023-03-30T04:54:51;14.50;99.90
31967;DHT22;18496;52.042;6.812;2023-03-30T04:57:07;14.50;99.90
31967;DHT22;18496;52.042;6.812;2023-03-30T04:59:41;14.50;99.90
31967;DHT22;18496;52.042;6.812;2023-03-30T05:01:45;14.50;99.90
31967;DHT22;18496;52.042;6.812;2023-03-30T05:04:12;14.50;99.90
31967;DHT22;18496;52.042;6.812;2023-03-30T05:06:35;14.50;99.90
31967;DHT22;18496;52.042;6.812;2023-03-30T05:09:03;14.50;99.90
31967;DHT22;18496;52.042;6.812;2023-03-30T05:11:26;14.50;99.90
31967;DHT22;18496;52.042;6.812;2023-03-30T05:13:37;14.50;99.90
31967;DHT22;18496;52.042;6.812;2023-03-30T05:16:06;14.50;99.90
31967;DHT22;18496;52.042;6.812;2023-03-30T05:18:42;14.50;99.90
31967;DHT22;18496;52.042;6.812;2023-03-30T05:20:57;14.50;99.90
31967;DHT22;18496;52.042;6.812;2023-03-30T05:23:14;14.50;99.90
31967;DHT22;18496;52.042;6.812;2023-03-30T05:25:37;14.50;99.90
31967;DHT22;18496;52.042;6.812;2023-03-30T05:28:03;14.50;99.90
31967;DHT22;18496;52.042;6.812;2023-03-30T05:30:25;14.50;99.90
31967;DHT22;18496;52.042;6.812;2023-03-30T05:32:47;14.50;99.90
31967;DHT22;18496;52.042;6.812;2023-03-30T05:35:21;14.50;99.90
31967;DHT22;18496;52.042;6.812;2023-03-30T05:37:47;14.50;99.90
31967;DHT22;18496;52.042;6.812;2023-03-30T05:40:02;14.50;99.90
31967;DHT22;18496;52.042;6.812;2023-03-30T05:42:20;14.40;99.90
31967;DHT22;18496;52.042;6.812;2023-03-30T05:44:44;14.40;99.90
31967;DHT22;18496;52.042;6.812;2023-03-30T05:47:06;14.40;99.90
31967;DHT22;18496;52.042;6.812;2023-03-30T05:49:28;14.50;99.90
31967;DHT22;18496;52.042;6.812;2023-03-30T05:51:44;14.40;99.90
31967;DHT22;18496;52.042;6.812;2023-03-30T05:54:04;14.40;99.90
31967;DHT22;18496;52.042;6.812;2023-03-30T05:56:23;14.50;99.90
31967;DHT22;18496;52.042;6.812;2023-03-30T05:58:50;14.50;99.90
31967;DHT22;18496;52.042;6.812;2023-03-30T06:01:15;14.50;99.90
31967;DHT22;18496;52.042;6.812;2023-03-30T06:03:21;14.50;99.90
31967;DHT22;18496;52.042;6.812;2023-03-30T06:05:25;14.50;99.90
31967;DHT22;18496;52.042;6.812;2023-03-30T06:07:29;14.50;99.90
31967;DHT22;18496;52.042;6.812;2023-03-30T06:09:33;14.50;99.90
31967;DHT22;18496;52.042;6.812;2023-03-30T06:11:41;14.50;99.90
31967;DHT22;18496;52.042;6.812;2023-03-30T06:14:03;14.50;99.90
31967;DHT22;18496;52.042;6.812;2023-03-30T06:16:06;14.40;99.90
31967;DHT22;18496;52.042;6.812;2023-03-30T06:18:10;14.40;99.90
31967;DHT22;18496;52.042;6.812;2023-03-30T06:20:20;14.40;99.90
31967;DHT22;18496;52.042;6.812;2023-03-30T06:22:27;14.40;99.90
31967;DHT22;18496;52.042;6.812;2023-03-30T06:24:53;14.30;99.90
31967;DHT22;18496;52.042;6.812;2023-03-30T06:26:58;14.30;99.90
31967;DHT22;18496;52.042;6.812;2023-03-30T06:29:01;14.20;99.90
31967;DHT22;18496;52.042;6.812;2023-03-30T06:31:07;14.10;99.90
31967;DHT22;18496;52.042;6.812;2023-03-30T06:33:11;14.10;99.90
31967;DHT22;18496;52.042;6.812;2023-03-30T06:35:34;14.00;99.90
31967;DHT22;18496;52.042;6.812;2023-03-30T06:37:38;14.00;99.90
31967;DHT22;18496;52.042;6.812;2023-03-30T06:39:43;13.90;99.90
31967;DHT22;18496;52.042;6.812;2023-03-30T06:41:47;13.90;99.90
31967;DHT22;18496;52.042;6.812;2023-03-30T06:44:09;13.80;99.90
31967;DHT22;18496;52.042;6.812;2023-03-30T06:46:16;13.80;99.90
31967;DHT22;18496;52.042;6.812;2023-03-30T06:48:25;13.80;99.90
31967;DHT22;18496;52.042;6.812;2023-03-30T06:50:49;13.70;99.90
31967;DHT22;18496;52.042;6.812;2023-03-30T06:52:59;13.70;99.90
31967;DHT22;18496;52.042;6.812;2023-03-30T06:55:07;13.60;99.90
31967;DHT22;18496;52.042;6.812;2023-03-30T06:57:12;13.60;99.90
31967;DHT22;18496;52.042;6.812;2023-03-30T06:59:21;13.60;99.90
31967;DHT22;18496;52.042;6.812;2023-03-30T07:01:43;13.60;99.90
31967;DHT22;18496;52.042;6.812;2023-03-30T07:04:22;13.60;99.90
31967;DHT22;18496;52.042;6.812;2023-03-30T07:06:47;13.60;99.90
31967;DHT22;18496;52.042;6.812;2023-03-30T07:08:51;13.60;99.90
31967;DHT22;18496;52.042;6.812;2023-03-30T07:10:59;13.60;99.90
31967;DHT22;18496;52.042;6.812;2023-03-30T07:13:07;13.70;99.90
31967;DHT22;18496;52.042;6.812;2023-03-30T07:15:13;13.60;99.90
31967;DHT22;18496;52.042;6.812;2023-03-30T07:17:18;13.70;99.90
31967;DHT22;18496;52.042;6.812;2023-03-30T07:19:22;13.70;99.90
31967;DHT22;18496;52.042;6.812;2023-03-30T07:21:25;13.70;99.90
31967;DHT22;18496;52.042;6.812;2023-03-30T07:23:29;13.80;99.90
31967;DHT22;18496;52.042;6.812;2023-03-30T07:25:33;13.80;99.90
31967;DHT22;18496;52.042;6.812;2023-03-30T07:27:45;13.80;99.90
31967;DHT22;18496;52.042;6.812;2023-03-30T07:29:50;13.80;99.90
31967;DHT22;18496;52.042;6.812;2023-03-30T07:31:54;13.90;99.90
31967;DHT22;18496;52.042;6.812;2023-03-30T07:33:59;13.90;99.90
31967;DHT22;18496;52.042;6.812;2023-03-30T07:36:14;13.90;99.90
31967;DHT22;18496;52.042;6.812;2023-03-30T07:38:18;13.90;99.90
31967;DHT22;18496;52.042;6.812;2023-03-30T07:40:27;13.90;99.90
31967;DHT22;18496;52.042;6.812;2023-03-30T07:42:32;13.90;99.90
31967;DHT22;18496;52.042;6.812;2023-03-30T07:44:36;13.90;99.90
31967;DHT22;18496;52.042;6.812;2023-03-30T07:47:04;13.90;99.90
31967;DHT22;18496;52.042;6.812;2023-03-30T07:49:10;13.90;99.90
31967;DHT22;18496;52.042;6.812;2023-03-30T07:51:15;13.90;99.90
31967;DHT22;18496;52.042;6.812;2023-03-30T07:53:29;13.90;99.90
31967;DHT22;18496;52.042;6.812;2023-03-30T07:55:34;13.90;99.90
31967;DHT22;18496;52.042;6.812;2023-03-30T07:58:01;14.00;99.90
31967;DHT22;18496;52.042;6.812;2023-03-30T08:00:05;14.00;99.90
31967;DHT22;18496;52.042;6.812;2023-03-30T08:02:25;14.00;99.90
31967;DHT22;18496;52.042;6.812;2023-03-30T08:04:31;14.00;99.90
31967;DHT22;18496;52.042;6.812;2023-03-30T08:06:35;14.00;99.90
31967;DHT22;18496;52.042;6.812;2023-03-30T08:08:39;14.10;99.90
31967;DHT22;18496;52.042;6.812;2023-03-30T08:10:43;14.10;99.90
31967;DHT22;18496;52.042;6.812;2023-03-30T08:12:47;14.10;99.90
31967;DHT22;18496;52.042;6.812;2023-03-30T08:14:51;14.10;99.90
31967;DHT22;18496;52.042;6.812;2023-03-30T08:16:55;14.10;99.90
31967;DHT22;18496;52.042;6.812;2023-03-30T08:18:59;14.00;99.90
31967;DHT22;18496;52.042;6.812;2023-03-30T08:21:02;14.10;99.90
31967;DHT22;18496;52.042;6.812;2023-03-30T08:23:07;14.10;99.90
31967;DHT22;18496;52.042;6.812;2023-03-30T08:25:11;14.10;99.90
31967;DHT22;18496;52.042;6.812;2023-03-30T08:27:15;14.20;99.90
31967;DHT22;18496;52.042;6.812;2023-03-30T08:29:18;14.20;99.90
31967;DHT22;18496;52.042;6.812;2023-03-30T08:31:22;14.10;99.90
31967;DHT22;18496;52.042;6.812;2023-03-30T08:33:26;14.10;99.90
31967;DHT22;18496;52.042;6.812;2023-03-30T08:35:30;14.10;99.90
31967;DHT22;18496;52.042;6.812;2023-03-30T08:37:33;14.10;99.90
31967;DHT22;18496;52.042;6.812;2023-03-30T08:39:37;14.20;99.90
31967;DHT22;18496;52.042;6.812;2023-03-30T08:41:57;14.30;99.90
31967;DHT22;18496;52.042;6.812;2023-03-30T08:44:24;14.40;99.90
31967;DHT22;18496;52.042;6.812;2023-03-30T08:46:30;14.40;99.90
31967;DHT22;18496;52.042;6.812;2023-03-30T08:48:33;14.50;99.90
31967;DHT22;18496;52.042;6.812;2023-03-30T08:50:39;14.50;99.90
31967;DHT22;18496;52.042;6.812;2023-03-30T08:52:43;14.50;99.90
31967;DHT22;18496;52.042;6.812;2023-03-30T08:54:48;14.50;99.90
31967;DHT22;18496;52.042;6.812;2023-03-30T08:56:59;14.60;99.90
31967;DHT22;18496;52.042;6.812;2023-03-30T09:01:12;14.60;99.90
31967;DHT22;18496;52.042;6.812;2023-03-30T09:05:29;14.70;99.90
31967;DHT22;18496;52.042;6.812;2023-03-30T09:07:38;14.70;99.90
31967;DHT22;18496;52.042;6.812;2023-03-30T09:09:44;14.70;99.90
31967;DHT22;18496;52.042;6.812;2023-03-30T09:11:49;14.70;99.90
31967;DHT22;18496;52.042;6.812;2023-03-30T09:13:55;14.70;99.90
31967;DHT22;18496;52.042;6.812;2023-03-30T09:20:31;14.70;99.90
31967;DHT22;18496;52.042;6.812;2023-03-30T09:22:39;14.70;99.90
31967;DHT22;18496;52.042;6.812;2023-03-30T09:24:44;14.70;99.90
31967;DHT22;18496;52.042;6.812;2023-03-30T09:26:57;14.70;99.90
31967;DHT22;18496;52.042;6.812;2023-03-30T09:29:05;14.70;99.90
31967;DHT22;18496;52.042;6.812;2023-03-30T09:31:12;14.60;99.90
31967;DHT22;18496;52.042;6.812;2023-03-30T09:35:40;14.70;99.90
31967;DHT22;18496;52.042;6.812;2023-03-30T09:37:45;14.60;99.90
31967;DHT22;18496;52.042;6.812;2023-03-30T09:39:49;14.60;99.90
31967;DHT22;18496;52.042;6.812;2023-03-30T09:44:22;14.70;99.90
31967;DHT22;18496;52.042;6.812;2023-03-30T09:46:28;14.70;99.90
31967;DHT22;18496;52.042;6.812;2023-03-30T09:48:42;14.70;99.90
31967;DHT22;18496;52.042;6.812;2023-03-30T09:50:46;14.70;99.90
31967;DHT22;18496;52.042;6.812;2023-03-30T09:53:00;14.80;99.90
31967;DHT22;18496;52.042;6.812;2023-03-30T09:57:27;14.80;99.90
31967;DHT22;18496;52.042;6.812;2023-03-30T09:59:33;14.80;99.90
31967;DHT22;18496;52.042;6.812;2023-03-30T10:01:37;14.80;99.90
31967;DHT22;18496;52.042;6.812;2023-03-30T10:03:41;14.80;99.90
31967;DHT22;18496;52.042;6.812;2023-03-30T10:05:45;14.80;99.90
31967;DHT22;18496;52.042;6.812;2023-03-30T10:08:11;14.90;99.90
31967;DHT22;18496;52.042;6.812;2023-03-30T10:12:28;15.00;99.90
31967;DHT22;18496;52.042;6.812;2023-03-30T10:14:33;15.00;99.90
31967;DHT22;18496;52.042;6.812;2023-03-30T10:16:37;15.00;99.90
31967;DHT22;18496;52.042;6.812;2023-03-30T10:18:41;15.00;99.90
31967;DHT22;18496;52.042;6.812;2023-03-30T10:20:46;15.00;99.90
31967;DHT22;18496;52.042;6.812;2023-03-30T10:23:04;15.00;99.90
31967;DHT22;18496;52.042;6.812;2023-03-30T10:25:08;15.00;99.90
31967;DHT22;18496;52.042;6.812;2023-03-30T10:27:24;15.00;99.90
31967;DHT22;18496;52.042;6.812;2023-03-30T10:29:28;14.90;99.90
31967;DHT22;18496;52.042;6.812;2023-03-30T10:31:32;15.00;99.90
31967;DHT22;18496;52.042;6.812;2023-03-30T10:33:38;14.90;99.90
31967;DHT22;18496;52.042;6.812;2023-03-30T10:35:42;15.00;99.90
31967;DHT22;18496;52.042;6.812;2023-03-30T10:37:51;15.00;99.90
31967;DHT22;18496;52.042;6.812;2023-03-30T10:39:55;15.00;99.90
31967;DHT22;18496;52.042;6.812;2023-03-30T10:42:01;15.00;99.90
31967;DHT22;18496;52.042;6.812;2023-03-30T10:44:14;15.10;99.90
31967;DHT22;18496;52.042;6.812;2023-03-30T10:46:20;15.10;99.90
31967;DHT22;18496;52.042;6.812;2023-03-30T10:52:49;15.30;99.90
31967;DHT22;18496;52.042;6.812;2023-03-30T10:55:02;15.30;99.90
31967;DHT22;18496;52.042;6.812;2023-03-30T10:57:12;15.40;99.90
31967;DHT22;18496;52.042;6.812;2023-03-30T11:03:36;15.50;99.90
31967;DHT22;18496;52.042;6.812;2023-03-30T11:05:41;15.50;99.90
31967;DHT22;18496;52.042;6.812;2023-03-30T11:07:59;15.60;99.90
31967;DHT22;18496;52.042;6.812;2023-03-30T11:10:05;15.60;99.90
31967;DHT22;18496;52.042;6.812;2023-03-30T11:12:16;15.70;99.90
31967;DHT22;18496;52.042;6.812;2023-03-30T11:16:44;15.80;99.90
31967;DHT22;18496;52.042;6.812;2023-03-30T11:23:19;15.70;99.90
31967;DHT22;18496;52.042;6.812;2023-03-30T11:25:32;15.70;99.90
31967;DHT22;18496;52.042;6.812;2023-03-30T11:27:42;15.60;99.90
31967;DHT22;18496;52.042;6.812;2023-03-30T11:36:40;15.50;99.90
31967;DHT22;18496;52.042;6.812;2023-03-30T11:38:49;15.50;99.90
31967;DHT22;18496;52.042;6.812;2023-03-30T11:41:00;15.50;99.90
31967;DHT22;18496;52.042;6.812;2023-03-30T11:43:08;15.60;99.90
31967;DHT22;18496;52.042;6.812;2023-03-30T11:45:34;15.60;99.90
31967;DHT22;18496;52.042;6.812;2023-03-30T11:47:49;15.60;99.90
31967;DHT22;18496;52.042;6.812;2023-03-30T11:52:28;15.60;99.90
31967;DHT22;18496;52.042;6.812;2023-03-30T11:59:36;15.60;99.90
31967;DHT22;18496;52.042;6.812;2023-03-30T12:10:08;15.90;99.90
31967;DHT22;18496;52.042;6.812;2023-03-30T12:12:15;16.00;99.90
31967;DHT22;18496;52.042;6.812;2023-03-30T12:16:44;16.10;99.90
31967;DHT22;18496;52.042;6.812;2023-03-30T12:25:29;16.10;99.90
31967;DHT22;18496;52.042;6.812;2023-03-30T12:27:35;16.10;99.90
31967;DHT22;18496;52.042;6.812;2023-03-30T12:30:10;16.00;99.90
31967;DHT22;18496;52.042;6.812;2023-03-30T12:32:05;16.00;99.90
31967;DHT22;18496;52.042;6.812;2023-03-30T12:34:09;15.80;99.90
31967;DHT22;18496;52.042;6.812;2023-03-30T12:38:37;15.70;99.90
31967;DHT22;18496;52.042;6.812;2023-03-30T12:40:43;15.70;99.90
31967;DHT22;18496;52.042;6.812;2023-03-30T12:42:51;15.80;99.90
31967;DHT22;18496;52.042;6.812;2023-03-30T12:47:06;16.10;99.90
31967;DHT22;18496;52.042;6.812;2023-03-30T12:54:02;16.20;99.90
31967;DHT22;18496;52.042;6.812;2023-03-30T13:01:02;16.10;99.90
31967;DHT22;18496;52.042;6.812;2023-03-30T13:05:36;15.80;99.90
31967;DHT22;18496;52.042;6.812;2023-03-30T13:07:41;15.70;99.90
31967;DHT22;18496;52.042;6.812;2023-03-30T13:09:58;15.70;99.90
31967;DHT22;18496;52.042;6.812;2023-03-30T13:23:42;15.60;99.90
31967;DHT22;18496;52.042;6.812;2023-03-30T13:25:25;15.70;99.90
31967;DHT22;18496;52.042;6.812;2023-03-30T13:27:33;15.70;99.90
31967;DHT22;18496;52.042;6.812;2023-03-30T13:29:37;15.60;99.90
31967;DHT22;18496;52.042;6.812;2023-03-30T13:31:47;15.60;99.90
31967;DHT22;18496;52.042;6.812;2023-03-30T13:36:23;15.60;99.90
31967;DHT22;18496;52.042;6.812;2023-03-30T13:41:17;15.80;99.90
31967;DHT22;18496;52.042;6.812;2023-03-30T13:45:21;16.10;99.90
31967;DHT22;18496;52.042;6.812;2023-03-30T13:50:01;16.10;99.90
31967;DHT22;18496;52.042;6.812;2023-03-30T13:52:09;16.10;99.90
31967;DHT22;18496;52.042;6.812;2023-03-30T13:54:20;16.20;99.90
31967;DHT22;18496;52.042;6.812;2023-03-30T13:56:31;16.30;99.90
31967;DHT22;18496;52.042;6.812;2023-03-30T13:58:35;16.40;99.90
31967;DHT22;18496;52.042;6.812;2023-03-30T14:00:49;16.50;99.90
31967;DHT22;18496;52.042;6.812;2023-03-30T14:02:56;16.50;99.90
31967;DHT22;18496;52.042;6.812;2023-03-30T14:07:20;16.50;99.90
31967;DHT22;18496;52.042;6.812;2023-03-30T14:09:25;16.50;99.90
31967;DHT22;18496;52.042;6.812;2023-03-30T14:11:32;16.50;99.90
31967;DHT22;18496;52.042;6.812;2023-03-30T14:13:35;16.50;99.90
31967;DHT22;18496;52.042;6.812;2023-03-30T14:15:39;16.50;99.90
31967;DHT22;18496;52.042;6.812;2023-03-30T14:17:47;16.50;99.90
31967;DHT22;18496;52.042;6.812;2023-03-30T14:21:56;16.50;99.90
31967;DHT22;18496;52.042;6.812;2023-03-30T14:24:02;16.40;99.90
31967;DHT22;18496;52.042;6.812;2023-03-30T14:26:16;16.30;99.90
31967;DHT22;18496;52.042;6.812;2023-03-30T14:28:20;16.10;99.90
31967;DHT22;18496;52.042;6.812;2023-03-30T14:30:25;16.00;99.90
31967;DHT22;18496;52.042;6.812;2023-03-30T14:32:31;15.90;99.90
31967;DHT22;18496;52.042;6.812;2023-03-30T14:34:34;15.80;99.90
31967;DHT22;18496;52.042;6.812;2023-03-30T14:36:38;15.80;99.90
31967;DHT22;18496;52.042;6.812;2023-03-30T14:39:00;15.80;99.90
31967;DHT22;18496;52.042;6.812;2023-03-30T14:41:13;15.90;99.90
31967;DHT22;18496;52.042;6.812;2023-03-30T14:43:20;16.10;99.90
31967;DHT22;18496;52.042;6.812;2023-03-30T14:45:24;16.20;99.90
31967;DHT22;18496;52.042;6.812;2023-03-30T14:47:28;16.10;99.90
31967;DHT22;18496;52.042;6.812;2023-03-30T14:49:32;16.10;99.90
31967;DHT22;18496;52.042;6.812;2023-03-30T14:51:46;16.00;99.90
31967;DHT22;18496;52.042;6.812;2023-03-30T14:53:51;16.10;99.90
31967;DHT22;18496;52.042;6.812;2023-03-30T14:55:56;16.00;99.90
31967;DHT22;18496;52.042;6.812;2023-03-30T14:58:01;16.00;99.90
31967;DHT22;18496;52.042;6.812;2023-03-30T15:00:15;16.00;99.90
31967;DHT22;18496;52.042;6.812;2023-03-30T15:02:21;16.00;99.90
31967;DHT22;18496;52.042;6.812;2023-03-30T15:04:27;16.00;99.90
31967;DHT22;18496;52.042;6.812;2023-03-30T15:06:34;16.00;99.90
31967;DHT22;18496;52.042;6.812;2023-03-30T15:08:38;16.00;99.90
31967;DHT22;18496;52.042;6.812;2023-03-30T15:10:48;16.00;99.90
31967;DHT22;18496;52.042;6.812;2023-03-30T15:12:54;16.10;99.90
31967;DHT22;18496;52.042;6.812;2023-03-30T15:15:02;16.10;99.90
31967;DHT22;18496;52.042;6.812;2023-03-30T15:17:08;16.20;99.90
31967;DHT22;18496;52.042;6.812;2023-03-30T15:19:34;16.30;99.90
31967;DHT22;18496;52.042;6.812;2023-03-30T15:21:37;16.40;99.90
31967;DHT22;18496;52.042;6.812;2023-03-30T15:23:41;16.50;99.90
31967;DHT22;18496;52.042;6.812;2023-03-30T15:25:45;16.50;99.90
31967;DHT22;18496;52.042;6.812;2023-03-30T15:28:02;16.50;99.90
31967;DHT22;18496;52.042;6.812;2023-03-30T15:30:09;16.50;99.90
31967;DHT22;18496;52.042;6.812;2023-03-30T15:32:17;16.50;99.90
31967;DHT22;18496;52.042;6.812;2023-03-30T15:34:22;16.60;99.90
31967;DHT22;18496;52.042;6.812;2023-03-30T15:36:35;16.60;99.90
31967;DHT22;18496;52.042;6.812;2023-03-30T15:38:45;16.70;99.90
31967;DHT22;18496;52.042;6.812;2023-03-30T15:40:49;16.70;99.90
31967;DHT22;18496;52.042;6.812;2023-03-30T15:45:15;16.60;99.90
31967;DHT22;18496;52.042;6.812;2023-03-30T15:47:18;16.50;99.90
31967;DHT22;18496;52.042;6.812;2023-03-30T15:49:43;16.50;99.90
31967;DHT22;18496;52.042;6.812;2023-03-30T15:51:47;16.50;99.90
31967;DHT22;18496;52.042;6.812;2023-03-30T15:57:01;16.40;99.90
31967;DHT22;18496;52.042;6.812;2023-03-30T15:58:45;16.40;99.90
31967;DHT22;18496;52.042;6.812;2023-03-30T16:00:50;16.40;99.90
31967;DHT22;18496;52.042;6.812;2023-03-30T16:02:55;16.40;99.90
31967;DHT22;18496;52.042;6.812;2023-03-30T16:05:03;16.50;99.90
31967;DHT22;18496;52.042;6.812;2023-03-30T16:07:13;16.50;99.90
31967;DHT22;18496;52.042;6.812;2023-03-30T16:09:17;16.50;99.90
31967;DHT22;18496;52.042;6.812;2023-03-30T16:11:21;16.50;99.90
31967;DHT22;18496;52.042;6.812;2023-03-30T16:13:24;16.50;99.90
31967;DHT22;18496;52.042;6.812;2023-03-30T16:15:29;16.50;99.90